sensor_id;sensor_type;location;lat;lon;timestamp;P1;durP1;ratioP1;P2;durP2;ratioP2
14167;SDS011;7163;50.626;12.922;2022-09-20T00:04:34;9.63;;;6.60;;
14167;SDS011;7163;50.626;12.922;2022-09-20T00:09:35;11.77;;;7.40;;
14167;SDS011;7163;50.626;12.922;2022-09-20T00:14:35;10.57;;;6.23;;
14167;SDS011;7163;50.626;12.922;2022-09-20T00:19:35;9.93;;;5.70;;
14167;SDS011;7163;50.626;12.922;2022-09-20T00:24:36;12.93;;;6.73;;
14167;SDS011;7163;50.626;12.922;2022-09-20T00:29:36;9.77;;;6.80;;
14167;SDS011;7163;50.626;12.922;2022-09-20T00:34:37;17.47;;;7.00;;
14167;SDS011;7163;50.626;12.922;2022-09-20T00:39:55;12.30;;;7.47;;
14167;SDS011;7163;50.626;12.922;2022-09-20T00:44:57;11.97;;;7.60;;
14167;SDS011;7163;50.626;12.922;2022-09-20T00:50:04;13.07;;;8.03;;
14167;SDS011;7163;50.626;12.922;2022-09-20T00:55:26;14.60;;;7.53;;
14167;SDS011;7163;50.626;12.922;2022-09-20T01:00:26;11.73;;;6.97;;
14167;SDS011;7163;50.626;12.922;2022-09-20T01:05:28;19.87;;;8.60;;
14167;SDS011;7163;50.626;12.922;2022-09-20T01:10:29;12.40;;;7.90;;
14167;SDS011;7163;50.626;12.922;2022-09-20T01:15:31;13.70;;;7.80;;
14167;SDS011;7163;50.626;12.922;2022-09-20T01:20:35;13.47;;;8.13;;
14167;SDS011;7163;50.626;12.922;2022-09-20T01:25:51;17.00;;;8.00;;
14167;SDS011;7163;50.626;12.922;2022-09-20T01:36:46;13.93;;;9.20;;
14167;SDS011;7163;50.626;12.922;2022-09-20T01:41:51;14.63;;;8.23;;
14167;SDS011;7163;50.626;12.922;2022-09-20T01:46:55;16.97;;;8.43;;
14167;SDS011;7163;50.626;12.922;2022-09-20T01:52:10;13.83;;;8.40;;
14167;SDS011;7163;50.626;12.922;2022-09-20T02:03:04;17.60;;;8.67;;
14167;SDS011;7163;50.626;12.922;2022-09-20T02:13:53;12.43;;;6.73;;
14167;SDS011;7163;50.626;12.922;2022-09-20T02:24:43;9.80;;;6.00;;
14167;SDS011;7163;50.626;12.922;2022-09-20T02:29:52;4.60;;;3.60;;
14167;SDS011;7163;50.626;12.922;2022-09-20T02:46:12;17.13;;;7.20;;
14167;SDS011;7163;50.626;12.922;2022-09-20T02:51:19;11.83;;;7.10;;
14167;SDS011;7163;50.626;12.922;2022-09-20T02:56:37;16.00;;;7.30;;
14167;SDS011;7163;50.626;12.922;2022-09-20T03:01:47;19.93;;;10.00;;
14167;SDS011;7163;50.626;12.922;2022-09-20T03:07:08;16.63;;;8.43;;
14167;SDS011;7163;50.626;12.922;2022-09-20T03:12:34;16.23;;;9.00;;
14167;SDS011;7163;50.626;12.922;2022-09-20T03:17:47;21.83;;;12.27;;
14167;SDS011;7163;50.626;12.922;2022-09-20T03:28:39;18.50;;;10.27;;
14167;SDS011;7163;50.626;12.922;2022-09-20T03:34:15;27.60;;;11.43;;
14167;SDS011;7163;50.626;12.922;2022-09-20T03:49:52;11.67;;;6.90;;
14167;SDS011;7163;50.626;12.922;2022-09-20T04:00:15;2.73;;;2.10;;
14167;SDS011;7163;50.626;12.922;2022-09-20T04:05:40;5.03;;;2.90;;
14167;SDS011;7163;50.626;12.922;2022-09-20T04:16:40;15.23;;;6.53;;
14167;SDS011;7163;50.626;12.922;2022-09-20T04:21:57;16.20;;;6.90;;
14167;SDS011;7163;50.626;12.922;2022-09-20T04:27:08;22.30;;;7.87;;
14167;SDS011;7163;50.626;12.922;2022-09-20T04:32:16;17.33;;;6.10;;
14167;SDS011;7163;50.626;12.922;2022-09-20T04:37:25;15.93;;;6.60;;
14167;SDS011;7163;50.626;12.922;2022-09-20T04:43:00;13.60;;;6.47;;
14167;SDS011;7163;50.626;12.922;2022-09-20T04:48:11;22.17;;;7.50;;
14167;SDS011;7163;50.626;12.922;2022-09-20T04:59:07;16.57;;;7.73;;
14167;SDS011;7163;50.626;12.922;2022-09-20T05:15:51;22.40;;;8.27;;
14167;SDS011;7163;50.626;12.922;2022-09-20T05:26:08;25.43;;;11.50;;
14167;SDS011;7163;50.626;12.922;2022-09-20T05:36:57;20.60;;;9.03;;
14167;SDS011;7163;50.626;12.922;2022-09-20T05:42:10;16.80;;;7.13;;
14167;SDS011;7163;50.626;12.922;2022-09-20T05:47:33;18.83;;;8.37;;
14167;SDS011;7163;50.626;12.922;2022-09-20T06:03:34;19.20;;;8.10;;
14167;SDS011;7163;50.626;12.922;2022-09-20T06:14:25;11.60;;;6.07;;
14167;SDS011;7163;50.626;12.922;2022-09-20T06:19:35;9.60;;;5.77;;
14167;SDS011;7163;50.626;12.922;2022-09-20T06:24:45;9.50;;;5.60;;
14167;SDS011;7163;50.626;12.922;2022-09-20T06:29:49;11.43;;;5.37;;
14167;SDS011;7163;50.626;12.922;2022-09-20T06:34:52;9.53;;;4.87;;
14167;SDS011;7163;50.626;12.922;2022-09-20T06:39:57;6.37;;;3.33;;
14167;SDS011;7163;50.626;12.922;2022-09-20T06:45:20;7.87;;;4.20;;
14167;SDS011;7163;50.626;12.922;2022-09-20T06:50:21;11.90;;;5.83;;
14167;SDS011;7163;50.626;12.922;2022-09-20T06:55:23;14.57;;;5.57;;
14167;SDS011;7163;50.626;12.922;2022-09-20T07:00:27;16.27;;;7.57;;
14167;SDS011;7163;50.626;12.922;2022-09-20T07:05:27;17.93;;;9.40;;
14167;SDS011;7163;50.626;12.922;2022-09-20T07:10:28;27.73;;;11.40;;
14167;SDS011;7163;50.626;12.922;2022-09-20T07:15:31;19.00;;;9.80;;
14167;SDS011;7163;50.626;12.922;2022-09-20T07:20:32;45.53;;;20.03;;
14167;SDS011;7163;50.626;12.922;2022-09-20T07:25:33;33.50;;;14.20;;
14167;SDS011;7163;50.626;12.922;2022-09-20T07:30:33;50.07;;;20.50;;
14167;SDS011;7163;50.626;12.922;2022-09-20T07:35:33;38.17;;;16.40;;
14167;SDS011;7163;50.626;12.922;2022-09-20T07:40:35;29.90;;;12.70;;
14167;SDS011;7163;50.626;12.922;2022-09-20T07:45:36;29.63;;;11.33;;
14167;SDS011;7163;50.626;12.922;2022-09-20T07:50:38;19.70;;;10.57;;
14167;SDS011;7163;50.626;12.922;2022-09-20T07:55:39;23.03;;;9.43;;
14167;SDS011;7163;50.626;12.922;2022-09-20T08:00:39;21.10;;;10.03;;
14167;SDS011;7163;50.626;12.922;2022-09-20T08:05:39;29.00;;;13.70;;
14167;SDS011;7163;50.626;12.922;2022-09-20T08:10:40;30.47;;;11.67;;
14167;SDS011;7163;50.626;12.922;2022-09-20T08:15:40;17.40;;;9.30;;
14167;SDS011;7163;50.626;12.922;2022-09-20T08:20:41;27.37;;;13.33;;
14167;SDS011;7163;50.626;12.922;2022-09-20T08:25:42;28.43;;;14.67;;
14167;SDS011;7163;50.626;12.922;2022-09-20T08:30:42;21.17;;;10.50;;
14167;SDS011;7163;50.626;12.922;2022-09-20T08:35:43;11.57;;;5.97;;
14167;SDS011;7163;50.626;12.922;2022-09-20T08:40:47;16.00;;;7.90;;
14167;SDS011;7163;50.626;12.922;2022-09-20T08:45:48;15.77;;;8.60;;
14167;SDS011;7163;50.626;12.922;2022-09-20T08:50:49;16.13;;;8.30;;
14167;SDS011;7163;50.626;12.922;2022-09-20T08:55:49;28.20;;;14.90;;
14167;SDS011;7163;50.626;12.922;2022-09-20T09:00:50;16.87;;;8.60;;
14167;SDS011;7163;50.626;12.922;2022-09-20T09:05:54;21.03;;;12.17;;
14167;SDS011;7163;50.626;12.922;2022-09-20T09:11:01;9.18;;;5.20;;
14167;SDS011;7163;50.626;12.922;2022-09-20T09:16:09;12.30;;;5.80;;
14167;SDS011;7163;50.626;12.922;2022-09-20T09:21:21;10.63;;;5.03;;
14167;SDS011;7163;50.626;12.922;2022-09-20T09:26:24;13.97;;;6.33;;
14167;SDS011;7163;50.626;12.922;2022-09-20T09:31:25;9.97;;;4.87;;
14167;SDS011;7163;50.626;12.922;2022-09-20T09:36:25;13.40;;;5.67;;
14167;SDS011;7163;50.626;12.922;2022-09-20T09:41:29;15.30;;;6.63;;
14167;SDS011;7163;50.626;12.922;2022-09-20T09:46:33;14.87;;;6.37;;
14167;SDS011;7163;50.626;12.922;2022-09-20T09:51:34;12.90;;;7.40;;
14167;SDS011;7163;50.626;12.922;2022-09-20T09:56:40;15.10;;;7.70;;
14167;SDS011;7163;50.626;12.922;2022-09-20T10:13:22;22.83;;;11.20;;
14167;SDS011;7163;50.626;12.922;2022-09-20T10:24:23;16.50;;;8.23;;
14167;SDS011;7163;50.626;12.922;2022-09-20T10:29:52;13.52;;;6.63;;
14167;SDS011;7163;50.626;12.922;2022-09-20T10:56:09;21.03;;;12.10;;
14167;SDS011;7163;50.626;12.922;2022-09-20T11:11:56;16.37;;;11.37;;
14167;SDS011;7163;50.626;12.922;2022-09-20T11:17:11;16.67;;;10.47;;
14167;SDS011;7163;50.626;12.922;2022-09-20T11:22:23;9.50;;;6.88;;
14167;SDS011;7163;50.626;12.922;2022-09-20T11:28:02;10.70;;;5.60;;
14167;SDS011;7163;50.626;12.922;2022-09-20T11:33:21;11.05;;;6.18;;
14167;SDS011;7163;50.626;12.922;2022-09-20T11:43:47;11.77;;;4.95;;
14167;SDS011;7163;50.626;12.922;2022-09-20T11:48:53;6.65;;;3.75;;
14167;SDS011;7163;50.626;12.922;2022-09-20T11:59:21;5.93;;;3.47;;
14167;SDS011;7163;50.626;12.922;2022-09-20T12:04:25;13.65;;;5.20;;
14167;SDS011;7163;50.626;12.922;2022-09-20T12:09:32;14.23;;;6.53;;
14167;SDS011;7163;50.626;12.922;2022-09-20T12:14:37;12.38;;;7.68;;
14167;SDS011;7163;50.626;12.922;2022-09-20T12:19:37;9.30;;;6.28;;
14167;SDS011;7163;50.626;12.922;2022-09-20T12:24:39;5.50;;;4.00;;
14167;SDS011;7163;50.626;12.922;2022-09-20T12:34:49;17.50;;;10.67;;
14167;SDS011;7163;50.626;12.922;2022-09-20T12:39:52;4.78;;;3.47;;
14167;SDS011;7163;50.626;12.922;2022-09-20T12:44:56;4.80;;;2.65;;
14167;SDS011;7163;50.626;12.922;2022-09-20T12:49:59;12.38;;;5.40;;
14167;SDS011;7163;50.626;12.922;2022-09-20T13:06:39;4.85;;;2.53;;
14167;SDS011;7163;50.626;12.922;2022-09-20T13:11:17;4.88;;;3.20;;
14167;SDS011;7163;50.626;12.922;2022-09-20T13:21:30;3.17;;;1.92;;
14167;SDS011;7163;50.626;12.922;2022-09-20T13:26:38;2.22;;;1.33;;
14167;SDS011;7163;50.626;12.922;2022-09-20T13:31:43;3.42;;;1.52;;
14167;SDS011;7163;50.626;12.922;2022-09-20T13:36:43;3.23;;;1.93;;
14167;SDS011;7163;50.626;12.922;2022-09-20T13:41:44;5.50;;;2.13;;
14167;SDS011;7163;50.626;12.922;2022-09-20T13:46:44;11.48;;;7.65;;
14167;SDS011;7163;50.626;12.922;2022-09-20T13:51:45;3.22;;;2.47;;
14167;SDS011;7163;50.626;12.922;2022-09-20T13:56:47;8.30;;;3.97;;
14167;SDS011;7163;50.626;12.922;2022-09-20T14:01:49;7.20;;;4.00;;
14167;SDS011;7163;50.626;12.922;2022-09-20T14:06:51;7.18;;;3.35;;
14167;SDS011;7163;50.626;12.922;2022-09-20T14:11:53;5.35;;;2.40;;
14167;SDS011;7163;50.626;12.922;2022-09-20T14:16:54;4.93;;;2.50;;
14167;SDS011;7163;50.626;12.922;2022-09-20T14:21:55;4.25;;;2.13;;
14167;SDS011;7163;50.626;12.922;2022-09-20T14:26:59;5.45;;;2.83;;
14167;SDS011;7163;50.626;12.922;2022-09-20T14:37:23;8.93;;;4.75;;
14167;SDS011;7163;50.626;12.922;2022-09-20T14:42:32;8.02;;;3.67;;
14167;SDS011;7163;50.626;12.922;2022-09-20T14:47:36;4.40;;;2.30;;
14167;SDS011;7163;50.626;12.922;2022-09-20T14:52:38;4.18;;;2.65;;
14167;SDS011;7163;50.626;12.922;2022-09-20T14:57:43;5.78;;;2.58;;
14167;SDS011;7163;50.626;12.922;2022-09-20T15:02:45;7.07;;;3.90;;
14167;SDS011;7163;50.626;12.922;2022-09-20T15:07:46;5.50;;;3.03;;
14167;SDS011;7163;50.626;12.922;2022-09-20T15:12:46;5.00;;;2.55;;
14167;SDS011;7163;50.626;12.922;2022-09-20T15:17:47;3.63;;;2.80;;
14167;SDS011;7163;50.626;12.922;2022-09-20T15:22:47;4.70;;;3.03;;
14167;SDS011;7163;50.626;12.922;2022-09-20T15:27:48;7.10;;;2.60;;
14167;SDS011;7163;50.626;12.922;2022-09-20T15:32:51;3.50;;;2.40;;
14167;SDS011;7163;50.626;12.922;2022-09-20T15:37:51;5.60;;;2.75;;
14167;SDS011;7163;50.626;12.922;2022-09-20T15:42:55;14.15;;;7.72;;
14167;SDS011;7163;50.626;12.922;2022-09-20T15:47:57;10.30;;;4.10;;
14167;SDS011;7163;50.626;12.922;2022-09-20T15:52:57;7.27;;;4.43;;
14167;SDS011;7163;50.626;12.922;2022-09-20T15:57:58;8.80;;;4.20;;
14167;SDS011;7163;50.626;12.922;2022-09-20T16:02:59;11.07;;;5.13;;
14167;SDS011;7163;50.626;12.922;2022-09-20T16:08:00;11.33;;;5.50;;
14167;SDS011;7163;50.626;12.922;2022-09-20T16:13:01;10.00;;;5.95;;
14167;SDS011;7163;50.626;12.922;2022-09-20T16:18:02;16.90;;;10.37;;
14167;SDS011;7163;50.626;12.922;2022-09-20T16:23:21;11.23;;;6.57;;
14167;SDS011;7163;50.626;12.922;2022-09-20T16:28:21;14.00;;;6.90;;
14167;SDS011;7163;50.626;12.922;2022-09-20T16:33:21;6.53;;;3.90;;
14167;SDS011;7163;50.626;12.922;2022-09-20T16:38:22;7.60;;;3.50;;
14167;SDS011;7163;50.626;12.922;2022-09-20T16:43:22;9.47;;;3.80;;
14167;SDS011;7163;50.626;12.922;2022-09-20T16:48:25;6.37;;;4.03;;
14167;SDS011;7163;50.626;12.922;2022-09-20T16:53:30;6.63;;;3.70;;
14167;SDS011;7163;50.626;12.922;2022-09-20T16:58:30;5.43;;;3.30;;
14167;SDS011;7163;50.626;12.922;2022-09-20T17:03:33;7.93;;;3.80;;
14167;SDS011;7163;50.626;12.922;2022-09-20T17:08:34;13.07;;;7.03;;
14167;SDS011;7163;50.626;12.922;2022-09-20T17:13:39;7.80;;;4.90;;
14167;SDS011;7163;50.626;12.922;2022-09-20T17:18:40;6.67;;;3.93;;
14167;SDS011;7163;50.626;12.922;2022-09-20T17:23:43;7.67;;;4.43;;
14167;SDS011;7163;50.626;12.922;2022-09-20T17:28:45;10.27;;;5.90;;
14167;SDS011;7163;50.626;12.922;2022-09-20T17:33:46;5.80;;;3.80;;
14167;SDS011;7163;50.626;12.922;2022-09-20T17:38:51;4.03;;;3.00;;
14167;SDS011;7163;50.626;12.922;2022-09-20T17:43:53;7.87;;;3.90;;
14167;SDS011;7163;50.626;12.922;2022-09-20T17:48:56;8.37;;;3.90;;
14167;SDS011;7163;50.626;12.922;2022-09-20T17:53:59;5.87;;;4.20;;
14167;SDS011;7163;50.626;12.922;2022-09-20T17:59:01;11.90;;;7.57;;
14167;SDS011;7163;50.626;12.922;2022-09-20T18:04:03;44.10;;;24.10;;
14167;SDS011;7163;50.626;12.922;2022-09-20T18:09:05;64.97;;;33.53;;
14167;SDS011;7163;50.626;12.922;2022-09-20T18:14:07;39.83;;;24.47;;
14167;SDS011;7163;50.626;12.922;2022-09-20T18:19:09;29.33;;;18.93;;
14167;SDS011;7163;50.626;12.922;2022-09-20T18:24:10;30.40;;;18.43;;
14167;SDS011;7163;50.626;12.922;2022-09-20T18:29:11;77.43;;;47.37;;
14167;SDS011;7163;50.626;12.922;2022-09-20T18:34:17;54.60;;;31.60;;
14167;SDS011;7163;50.626;12.922;2022-09-20T18:39:19;38.10;;;21.33;;
14167;SDS011;7163;50.626;12.922;2022-09-20T18:44:20;19.93;;;10.20;;
14167;SDS011;7163;50.626;12.922;2022-09-20T18:49:22;23.53;;;10.53;;
14167;SDS011;7163;50.626;12.922;2022-09-20T18:54:24;21.30;;;11.27;;
14167;SDS011;7163;50.626;12.922;2022-09-20T18:59:26;11.37;;;6.70;;
14167;SDS011;7163;50.626;12.922;2022-09-20T19:04:45;7.67;;;4.63;;
14167;SDS011;7163;50.626;12.922;2022-09-20T19:20:13;6.40;;;4.10;;
14167;SDS011;7163;50.626;12.922;2022-09-20T19:25:23;6.83;;;3.90;;
14167;SDS011;7163;50.626;12.922;2022-09-20T19:30:26;6.47;;;3.87;;
14167;SDS011;7163;50.626;12.922;2022-09-20T19:35:28;7.03;;;4.37;;
14167;SDS011;7163;50.626;12.922;2022-09-20T19:40:38;9.37;;;4.87;;
14167;SDS011;7163;50.626;12.922;2022-09-20T19:45:47;11.60;;;6.20;;
14167;SDS011;7163;50.626;12.922;2022-09-20T19:50:55;7.97;;;4.90;;
14167;SDS011;7163;50.626;12.922;2022-09-20T19:55:59;9.73;;;4.63;;
14167;SDS011;7163;50.626;12.922;2022-09-20T20:01:02;7.63;;;4.10;;
14167;SDS011;7163;50.626;12.922;2022-09-20T20:06:08;6.17;;;3.83;;
14167;SDS011;7163;50.626;12.922;2022-09-20T20:11:24;80.27;;;35.13;;
14167;SDS011;7163;50.626;12.922;2022-09-20T20:27:42;23.63;;;11.63;;
14167;SDS011;7163;50.626;12.922;2022-09-20T20:32:42;15.57;;;8.83;;
14167;SDS011;7163;50.626;12.922;2022-09-20T20:37:42;20.90;;;11.37;;
14167;SDS011;7163;50.626;12.922;2022-09-20T20:42:43;12.50;;;7.27;;
14167;SDS011;7163;50.626;12.922;2022-09-20T20:47:44;7.47;;;4.93;;
14167;SDS011;7163;50.626;12.922;2022-09-20T20:52:50;10.63;;;5.97;;
14167;SDS011;7163;50.626;12.922;2022-09-20T20:57:54;8.17;;;5.17;;
14167;SDS011;7163;50.626;12.922;2022-09-20T21:02:57;10.30;;;6.03;;
14167;SDS011;7163;50.626;12.922;2022-09-20T21:08:00;7.60;;;5.40;;
14167;SDS011;7163;50.626;12.922;2022-09-20T21:13:01;7.93;;;4.47;;
14167;SDS011;7163;50.626;12.922;2022-09-20T21:18:01;6.77;;;4.00;;
14167;SDS011;7163;50.626;12.922;2022-09-20T21:23:02;9.30;;;5.10;;
14167;SDS011;7163;50.626;12.922;2022-09-20T21:28:02;9.20;;;6.03;;
14167;SDS011;7163;50.626;12.922;2022-09-20T21:33:02;11.37;;;6.90;;
14167;SDS011;7163;50.626;12.922;2022-09-20T21:38:03;16.33;;;8.10;;
14167;SDS011;7163;50.626;12.922;2022-09-20T21:43:03;15.17;;;7.50;;
14167;SDS011;7163;50.626;12.922;2022-09-20T21:48:03;11.00;;;6.60;;
14167;SDS011;7163;50.626;12.922;2022-09-20T21:53:06;14.27;;;7.60;;
14167;SDS011;7163;50.626;12.922;2022-09-20T21:58:07;14.60;;;6.90;;
14167;SDS011;7163;50.626;12.922;2022-09-20T22:03:07;13.67;;;6.53;;
14167;SDS011;7163;50.626;12.922;2022-09-20T22:08:07;7.93;;;4.93;;
14167;SDS011;7163;50.626;12.922;2022-09-20T22:13:10;9.20;;;4.93;;
14167;SDS011;7163;50.626;12.922;2022-09-20T22:18:10;8.80;;;5.00;;
14167;SDS011;7163;50.626;12.922;2022-09-20T22:23:12;10.70;;;5.63;;
14167;SDS011;7163;50.626;12.922;2022-09-20T22:28:12;8.20;;;5.13;;
14167;SDS011;7163;50.626;12.922;2022-09-20T22:33:12;8.57;;;5.00;;
14167;SDS011;7163;50.626;12.922;2022-09-20T22:38:13;7.33;;;4.87;;
14167;SDS011;7163;50.626;12.922;2022-09-20T22:43:13;5.07;;;3.47;;
14167;SDS011;7163;50.626;12.922;2022-09-20T22:48:14;6.27;;;4.00;;
14167;SDS011;7163;50.626;12.922;2022-09-20T22:53:14;5.57;;;4.07;;
14167;SDS011;7163;50.626;12.922;2022-09-20T22:58:15;6.40;;;4.27;;
14167;SDS011;7163;50.626;12.922;2022-09-20T23:03:15;9.07;;;5.07;;
14167;SDS011;7163;50.626;12.922;2022-09-20T23:08:16;10.70;;;5.30;;
14167;SDS011;7163;50.626;12.922;2022-09-20T23:13:16;10.57;;;6.10;;
14167;SDS011;7163;50.626;12.922;2022-09-20T23:18:16;10.40;;;5.77;;
14167;SDS011;7163;50.626;12.922;2022-09-20T23:23:17;11.57;;;5.63;;
14167;SDS011;7163;50.626;12.922;2022-09-20T23:28:22;9.27;;;5.70;;
14167;SDS011;7163;50.626;12.922;2022-09-20T23:33:26;11.87;;;6.07;;
14167;SDS011;7163;50.626;12.922;2022-09-20T23:38:26;10.43;;;5.40;;
14167;SDS011;7163;50.626;12.922;2022-09-20T23:43:26;17.57;;;6.93;;
14167;SDS011;7163;50.626;12.922;2022-09-20T23:48:27;13.80;;;6.90;;
14167;SDS011;7163;50.626;12.922;2022-09-20T23:53:28;16.67;;;7.73;;
14167;SDS011;7163;50.626;12.922;2022-09-20T23:58:28;12.50;;;7.90;;
